Time;durP1;ratioP1;P1;durP2;ratioP2;P2;SDS_P1;SDS_P2;PMS_P1;PMS_P2;Temp;Humidity;BMP_temperature;BMP_pressure;BME280_temperature;BME280_humidity;BME280_pressure;Samples;Min_cycle;Max_cycle;Signal;HPM_P1;HPM_P2
2023/12/19 00:01:45;;;;;;;43.47;18.10;;;;;;;;;;5092497;28;20206;-88
2023/12/19 00:04:15;;;;;;;38.90;16.07;;;;;;;;;;5092460;28;20201;-88
2023/12/19 00:06:44;;;;;;;52.27;27.27;;;;;;;;;;5092731;28;20195;-88
2023/12/19 00:09:13;;;;;;;32.37;15.33;;;;;;;;;;5092724;28;20195;-88
2023/12/19 00:11:42;;;;;;;36.23;18.47;;;;;;;;;;5091985;28;20267;-88
2023/12/19 00:14:10;;;;;;;40.23;16.33;;;;;;;;;;5091951;28;20218;-88
2023/12/19 00:16:39;;;;;;;27.30;11.90;;;;;;;;;;5092509;28;20210;-89
2023/12/19 00:19:09;;;;;;;43.93;23.63;;;;;;;;;;5092099;28;20187;-88
2023/12/19 00:21:39;;;;;;;25.43;13.50;;;;;;;;;;5091861;28;20230;-88
2023/12/19 00:24:08;;;;;;;26.50;17.10;;;;;;;;;;5091934;28;20191;-88
2023/12/19 00:26:36;;;;;;;30.83;19.30;;;;;;;;;;5092292;28;20216;-90
2023/12/19 00:29:05;;;;;;;32.90;20.53;;;;;;;;;;5092510;28;20194;-85
2023/12/19 00:31:33;;;;;;;19.07;11.10;;;;;;;;;;5092029;28;20206;-85
2023/12/19 00:34:02;;;;;;;15.37;7.30;;;;;;;;;;5091807;28;20252;-85
2023/12/19 00:36:30;;;;;;;24.17;12.90;;;;;;;;;;5092543;28;20203;-85
2023/12/19 00:39:04;;;;;;;39.77;25.43;;;;;;;;;;5092603;28;20272;-85
2023/12/19 00:41:33;;;;;;;14.57;9.23;;;;;;;;;;5092038;28;20206;-85
2023/12/19 00:44:01;;;;;;;31.10;15.70;;;;;;;;;;5091659;28;20305;-85
2023/12/19 00:46:30;;;;;;;31.57;17.93;;;;;;;;;;5092828;28;20207;-85
2023/12/19 00:48:58;;;;;;;18.20;12.13;;;;;;;;;;5092276;28;20449;-85
2023/12/19 00:51:27;;;;;;;14.73;8.93;;;;;;;;;;5091954;28;20236;-85
2023/12/19 00:53:55;;;;;;;30.37;16.90;;;;;;;;;;5091514;28;20226;-85
2023/12/19 00:56:25;;;;;;;15.17;9.73;;;;;;;;;;5092423;28;20415;-85
2023/12/19 00:58:53;;;;;;;27.07;19.73;;;;;;;;;;5092258;28;20290;-85
2023/12/19 01:01:23;;;;;;;25.27;19.07;;;;;;;;;;5091577;28;20202;-85
2023/12/19 01:03:52;;;;;;;20.80;13.57;;;;;;;;;;5091282;28;20198;-85
2023/12/19 01:06:20;;;;;;;21.13;13.17;;;;;;;;;;5092040;28;20202;-85
2023/12/19 01:08:49;;;;;;;23.90;14.70;;;;;;;;;;5092124;28;20227;-85
2023/12/19 01:11:18;;;;;;;18.60;10.30;;;;;;;;;;5091636;28;20202;-85
2023/12/19 01:13:47;;;;;;;30.73;18.87;;;;;;;;;;5091106;28;20217;-85
2023/12/19 01:16:17;;;;;;;17.23;10.23;;;;;;;;;;5092267;28;20204;-85
2023/12/19 01:18:45;;;;;;;29.50;20.23;;;;;;;;;;5092188;28;20209;-85
2023/12/19 01:21:14;;;;;;;17.63;10.13;;;;;;;;;;5093103;28;20205;-85
2023/12/19 01:23:43;;;;;;;25.00;16.77;;;;;;;;;;5095834;28;20397;-85
2023/12/19 01:26:11;;;;;;;34.30;24.87;;;;;;;;;;5095833;28;20198;-85
2023/12/19 01:28:49;;;;;;;16.33;10.13;;;;;;;;;;5096402;28;20208;-85
2023/12/19 01:31:17;;;;;;;13.93;8.73;;;;;;;;;;5095586;28;20214;-85
2023/12/19 01:33:46;;;;;;;24.73;17.53;;;;;;;;;;5095052;28;20318;-85
2023/12/19 01:36:15;;;;;;;16.90;12.07;;;;;;;;;;5095518;28;20201;-85
2023/12/19 01:38:43;;;;;;;6.47;5.17;;;;;;;;;;5095443;28;20239;-85
2023/12/19 01:41:11;;;;;;;23.47;16.50;;;;;;;;;;5095242;28;20191;-85
2023/12/19 01:43:40;;;;;;;20.50;13.77;;;;;;;;;;5095016;28;20246;-85
2023/12/19 01:46:14;;;;;;;25.30;14.33;;;;;;;;;;5095630;28;20216;-85
2023/12/19 01:48:43;;;;;;;26.97;15.97;;;;;;;;;;5095554;28;20214;-85
2023/12/19 01:51:12;;;;;;;20.40;13.70;;;;;;;;;;5095395;28;20402;-85
2023/12/19 01:53:42;;;;;;;16.13;10.07;;;;;;;;;;5094586;28;20297;-85
2023/12/19 01:56:10;;;;;;;28.20;20.57;;;;;;;;;;5095732;28;20201;-85
2023/12/19 01:58:39;;;;;;;17.63;12.60;;;;;;;;;;5095435;28;20211;-85
2023/12/19 02:01:07;;;;;;;25.40;19.20;;;;;;;;;;5095694;28;20230;-85
2023/12/19 02:03:37;;;;;;;14.80;11.27;;;;;;;;;;5094481;28;20213;-85
2023/12/19 02:06:06;;;;;;;16.07;9.43;;;;;;;;;;5094759;28;20204;-85
2023/12/19 02:08:35;;;;;;;22.67;15.10;;;;;;;;;;5095174;28;20198;-85
2023/12/19 02:11:04;;;;;;;22.33;14.03;;;;;;;;;;5095121;28;20219;-85
2023/12/19 02:13:32;;;;;;;24.27;12.57;;;;;;;;;;5094460;28;20224;-85
2023/12/19 02:16:01;;;;;;;15.80;11.57;;;;;;;;;;5094736;28;20300;-85
2023/12/19 02:18:29;;;;;;;24.00;16.97;;;;;;;;;;5094860;28;20204;-89
2023/12/19 02:20:59;;;;;;;16.47;10.47;;;;;;;;;;5095071;28;20212;-88
2023/12/19 02:23:29;;;;;;;19.47;13.57;;;;;;;;;;5093836;28;20206;-88
2023/12/19 02:25:57;;;;;;;16.10;8.97;;;;;;;;;;5094152;28;20197;-88
2023/12/19 02:28:26;;;;;;;26.13;17.83;;;;;;;;;;5094677;28;20207;-88
2023/12/19 02:30:54;;;;;;;35.07;24.53;;;;;;;;;;5094816;28;20378;-88
2023/12/19 02:33:23;;;;;;;19.47;13.00;;;;;;;;;;5092873;28;20246;-88
2023/12/19 02:35:51;;;;;;;14.47;10.27;;;;;;;;;;5094001;28;20370;-88
2023/12/19 02:38:20;;;;;;;13.47;9.77;;;;;;;;;;5094066;28;20238;-89
2023/12/19 02:40:50;;;;;;;21.37;13.30;;;;;;;;;;5094297;28;20398;-88
2023/12/19 02:43:18;;;;;;;18.27;12.27;;;;;;;;;;5093754;28;20220;-89
2023/12/19 02:45:47;;;;;;;23.80;15.87;;;;;;;;;;5093758;28;20207;-88
2023/12/19 02:48:15;;;;;;;14.63;10.73;;;;;;;;;;5093872;28;20195;-89
2023/12/19 02:50:44;;;;;;;24.57;18.90;;;;;;;;;;5094397;28;20270;-88
2023/12/19 02:53:12;;;;;;;27.27;22.93;;;;;;;;;;5093500;28;20277;-88
2023/12/19 02:55:41;;;;;;;15.67;11.77;;;;;;;;;;5093580;28;20239;-88
2023/12/19 02:58:11;;;;;;;9.33;6.87;;;;;;;;;;5094041;28;20203;-88
2023/12/19 03:06:49;;;;;;;14.43;11.03;;;;;;;;;;5324182;23;20329;-83
2023/12/19 03:09:17;;;;;;;18.77;11.17;;;;;;;;;;4995608;28;20213;-83
2023/12/19 03:12:00;;;;;;;23.70;17.03;;;;;;;;;;4995282;28;20233;-83
2023/12/19 03:14:30;;;;;;;23.23;15.20;;;;;;;;;;4994684;28;20225;-83
2023/12/19 03:16:58;;;;;;;31.00;24.63;;;;;;;;;;4995567;28;20209;-83
2023/12/19 03:19:27;;;;;;;16.83;10.87;;;;;;;;;;4995758;28;20230;-83
2023/12/19 03:21:56;;;;;;;16.80;9.83;;;;;;;;;;4995300;28;20207;-83
2023/12/19 03:24:25;;;;;;;11.07;8.20;;;;;;;;;;4994903;28;20194;-83
2023/12/19 03:26:53;;;;;;;11.13;8.10;;;;;;;;;;4995196;28;20197;-83
2023/12/19 03:29:22;;;;;;;15.37;8.17;;;;;;;;;;4995337;28;20211;-84
2023/12/19 03:31:54;;;;;;;11.77;7.73;;;;;;;;;;4995116;28;20203;-84
2023/12/19 03:34:22;;;;;;;9.53;8.43;;;;;;;;;;4994922;28;20476;-83
2023/12/19 03:36:51;;;;;;;16.70;12.90;;;;;;;;;;4994671;28;20204;-83
2023/12/19 03:39:20;;;;;;;17.37;7.40;;;;;;;;;;4994796;28;20217;-83
2023/12/19 03:41:49;;;;;;;16.50;10.67;;;;;;;;;;4994955;28;20204;-83
2023/12/19 03:44:38;;;;;;;15.43;11.40;;;;;;;;;;4994051;28;20250;-83
2023/12/19 03:47:08;;;;;;;17.20;13.83;;;;;;;;;;4994959;28;20229;-83
2023/12/19 03:49:36;;;;;;;11.33;8.37;;;;;;;;;;4994899;28;20208;-83
2023/12/19 03:52:05;;;;;;;14.33;9.33;;;;;;;;;;4994799;28;20262;-83
2023/12/19 03:54:34;;;;;;;21.40;15.50;;;;;;;;;;4994323;28;20203;-83
2023/12/19 03:57:02;;;;;;;14.60;8.93;;;;;;;;;;4994393;28;20253;-83
2023/12/19 03:59:31;;;;;;;12.03;8.20;;;;;;;;;;4994688;28;20218;-83
2023/12/19 04:01:59;;;;;;;15.43;11.67;;;;;;;;;;4994389;28;20209;-83
2023/12/19 04:04:29;;;;;;;8.77;6.43;;;;;;;;;;4993121;28;20202;-84
2023/12/19 04:06:58;;;;;;;12.97;7.50;;;;;;;;;;4993158;28;20250;-85
2023/12/19 04:09:27;;;;;;;17.83;7.20;;;;;;;;;;4993703;28;20261;-84
2023/12/19 04:11:58;;;;;;;13.53;7.93;;;;;;;;;;4993502;28;20228;-84
2023/12/19 04:14:26;;;;;;;15.17;11.30;;;;;;;;;;4993063;28;20211;-84
2023/12/19 04:16:55;;;;;;;18.90;12.47;;;;;;;;;;4992721;28;20277;-84
2023/12/19 04:19:23;;;;;;;16.23;12.20;;;;;;;;;;4993784;28;20201;-84
2023/12/19 04:21:53;;;;;;;12.73;10.27;;;;;;;;;;4993041;28;20208;-84
2023/12/19 04:24:22;;;;;;;7.43;4.83;;;;;;;;;;4992567;28;20203;-84
2023/12/19 04:26:51;;;;;;;9.07;7.43;;;;;;;;;;4992917;28;20293;-84
2023/12/19 04:29:19;;;;;;;13.60;5.37;;;;;;;;;;4992979;28;20245;-84
2023/12/19 04:31:48;;;;;;;6.30;5.13;;;;;;;;;;4993114;28;20204;-84
2023/12/19 04:34:16;;;;;;;7.43;6.30;;;;;;;;;;4992307;28;20207;-84
2023/12/19 04:36:45;;;;;;;8.07;6.17;;;;;;;;;;4992275;28;20222;-84
2023/12/19 04:39:15;;;;;;;10.83;8.63;;;;;;;;;;4992814;28;20230;-84
2023/12/19 04:41:43;;;;;;;7.47;6.70;;;;;;;;;;4993081;28;20206;-84
2023/12/19 04:44:11;;;;;;;11.30;9.27;;;;;;;;;;4992287;28;20265;-85
2023/12/19 04:46:43;;;;;;;5.07;4.37;;;;;;;;;;4992391;28;20195;-84
2023/12/19 04:49:11;;;;;;;5.63;4.30;;;;;;;;;;4992933;28;20228;-84
2023/12/19 04:51:40;;;;;;;6.67;5.20;;;;;;;;;;4992895;28;20272;-84
2023/12/19 04:54:09;;;;;;;7.73;5.20;;;;;;;;;;4992478;28;20262;-84
2023/12/19 04:56:38;;;;;;;7.27;4.87;;;;;;;;;;4991670;28;20212;-84
2023/12/19 04:59:07;;;;;;;12.20;10.43;;;;;;;;;;4993210;28;20230;-84
2023/12/19 05:01:40;;;;;;;9.43;7.90;;;;;;;;;;4992702;28;20211;-84
2023/12/19 05:04:09;;;;;;;12.80;6.77;;;;;;;;;;4992278;28;20211;-85
2023/12/19 05:06:37;;;;;;;11.20;8.43;;;;;;;;;;4992067;28;20268;-84
2023/12/19 05:09:06;;;;;;;10.07;7.37;;;;;;;;;;4992555;28;20210;-85
2023/12/19 05:11:35;;;;;;;12.13;7.20;;;;;;;;;;4992705;28;20214;-84
2023/12/19 05:14:04;;;;;;;12.60;6.23;;;;;;;;;;4992344;28;20207;-85
2023/12/19 05:16:33;;;;;;;12.00;7.83;;;;;;;;;;4991688;28;20339;-85
2023/12/19 05:19:01;;;;;;;18.00;10.87;;;;;;;;;;4992441;28;20202;-85
2023/12/19 05:21:30;;;;;;;17.00;9.93;;;;;;;;;;4992937;28;20218;-84
2023/12/19 05:23:59;;;;;;;13.43;9.23;;;;;;;;;;4992248;28;20357;-84
2023/12/19 05:26:27;;;;;;;15.70;10.07;;;;;;;;;;4992089;28;20209;-84
2023/12/19 05:28:55;;;;;;;5.00;4.50;;;;;;;;;;4992630;28;20207;-85
2023/12/19 05:31:25;;;;;;;16.33;9.33;;;;;;;;;;4992338;28;20204;-85
2023/12/19 05:33:54;;;;;;;9.87;7.47;;;;;;;;;;4992138;28;20213;-85
2023/12/19 05:36:23;;;;;;;11.30;5.57;;;;;;;;;;4991889;28;20231;-85
2023/12/19 05:38:51;;;;;;;10.47;6.77;;;;;;;;;;4992427;28;20225;-85
2023/12/19 05:41:20;;;;;;;12.57;7.53;;;;;;;;;;4992461;28;20227;-85
2023/12/19 05:43:48;;;;;;;12.57;8.43;;;;;;;;;;4992032;28;20214;-85
2023/12/19 05:46:17;;;;;;;18.03;9.20;;;;;;;;;;4991636;28;20188;-85
2023/12/19 05:48:47;;;;;;;15.30;7.33;;;;;;;;;;4992224;28;20204;-85
2023/12/19 05:51:15;;;;;;;14.47;8.17;;;;;;;;;;4992799;28;20206;-85
2023/12/19 05:53:44;;;;;;;14.70;7.93;;;;;;;;;;4992327;28;20220;-85
2023/12/19 05:56:13;;;;;;;8.30;6.17;;;;;;;;;;4992087;28;20226;-85
2023/12/19 05:58:44;;;;;;;12.90;9.10;;;;;;;;;;4992246;28;20214;-86
2023/12/19 06:01:13;;;;;;;16.87;10.53;;;;;;;;;;4992396;28;20273;-85
2023/12/19 06:03:41;;;;;;;17.93;9.27;;;;;;;;;;4992283;28;20208;-85
2023/12/19 06:06:14;;;;;;;13.87;10.17;;;;;;;;;;4991500;28;20342;-85
2023/12/19 06:08:43;;;;;;;26.80;14.47;;;;;;;;;;4994960;28;20228;-85
2023/12/19 06:11:12;;;;;;;21.13;13.43;;;;;;;;;;4996309;28;20220;-85
2023/12/19 06:13:40;;;;;;;8.13;5.60;;;;;;;;;;4995754;28;20257;-85
2023/12/19 06:16:09;;;;;;;18.20;11.10;;;;;;;;;;4995290;28;20222;-86
2023/12/19 06:18:37;;;;;;;16.57;10.93;;;;;;;;;;4995488;28;20283;-85
2023/12/19 06:21:06;;;;;;;8.70;4.80;;;;;;;;;;4995983;28;20211;-85
2023/12/19 06:23:36;;;;;;;8.37;6.10;;;;;;;;;;4995418;28;20201;-84
2023/12/19 06:26:06;;;;;;;7.73;5.40;;;;;;;;;;4994745;28;20207;-85
2023/12/19 06:28:35;;;;;;;12.77;7.97;;;;;;;;;;4994856;28;20212;-85
2023/12/19 06:31:03;;;;;;;13.03;9.07;;;;;;;;;;4995168;28;20207;-85
2023/12/19 06:33:32;;;;;;;10.70;7.93;;;;;;;;;;4995507;28;20203;-85
2023/12/19 06:36:01;;;;;;;10.33;6.53;;;;;;;;;;4994590;28;20198;-85
2023/12/19 06:38:29;;;;;;;12.37;7.87;;;;;;;;;;4994932;28;20207;-85
2023/12/19 06:40:59;;;;;;;19.77;12.03;;;;;;;;;;4994749;28;20245;-85
2023/12/19 06:43:28;;;;;;;8.30;6.07;;;;;;;;;;4994794;28;20207;-84
2023/12/19 06:45:56;;;;;;;17.37;9.40;;;;;;;;;;4994934;28;20199;-85
2023/12/19 06:48:25;;;;;;;5.33;4.40;;;;;;;;;;4994706;28;20234;-85
2023/12/19 06:50:54;;;;;;;12.73;7.43;;;;;;;;;;4995630;28;20240;-85
2023/12/19 06:53:22;;;;;;;8.67;6.57;;;;;;;;;;4994916;28;20210;-85
2023/12/19 06:55:51;;;;;;;13.33;8.90;;;;;;;;;;4994348;28;20369;-85
2023/12/19 06:58:20;;;;;;;10.50;6.37;;;;;;;;;;4994073;28;20230;-85
2023/12/19 07:00:49;;;;;;;8.80;7.40;;;;;;;;;;4995033;28;20222;-85
2023/12/19 07:03:18;;;;;;;17.10;9.47;;;;;;;;;;4995022;28;20207;-85
2023/12/19 07:05:46;;;;;;;4.00;3.37;;;;;;;;;;4994205;28;20286;-85
2023/12/19 07:08:15;;;;;;;5.73;5.03;;;;;;;;;;4994430;28;20207;-85
2023/12/19 07:10:43;;;;;;;7.30;5.73;;;;;;;;;;4994620;28;20205;-85
2023/12/19 07:13:12;;;;;;;15.93;8.17;;;;;;;;;;4994568;28;20207;-85
2023/12/19 07:15:42;;;;;;;7.37;5.67;;;;;;;;;;4994342;28;20234;-85
2023/12/19 07:18:11;;;;;;;6.33;3.57;;;;;;;;;;4994206;28;20213;-86
2023/12/19 07:20:40;;;;;;;4.90;3.90;;;;;;;;;;4993930;28;20208;-86
2023/12/19 07:23:08;;;;;;;6.23;3.77;;;;;;;;;;4994466;28;20199;-84
2023/12/19 07:25:36;;;;;;;4.60;3.27;;;;;;;;;;4994114;28;20195;-87
2023/12/19 07:28:05;;;;;;;1.60;1.50;;;;;;;;;;4994091;28;20238;-87
2023/12/19 07:30:34;;;;;;;7.07;5.50;;;;;;;;;;4994520;28;20200;-88
2023/12/19 07:33:04;;;;;;;5.53;3.77;;;;;;;;;;4994644;28;20300;-88
2023/12/19 07:35:33;;;;;;;5.30;3.23;;;;;;;;;;4994284;28;20207;-88
2023/12/19 07:38:01;;;;;;;14.27;8.23;;;;;;;;;;4994732;28;20259;-88
2023/12/19 07:40:32;;;;;;;4.17;2.87;;;;;;;;;;4994542;28;20207;-88
2023/12/19 07:43:01;;;;;;;3.87;3.40;;;;;;;;;;4994425;28;20267;-88
2023/12/19 07:45:32;;;;;;;6.43;3.90;;;;;;;;;;4995048;28;20218;-89
2023/12/19 07:48:01;;;;;;;2.20;2.10;;;;;;;;;;4994190;28;20233;-89
2023/12/19 07:50:33;;;;;;;3.60;3.30;;;;;;;;;;4994929;28;20210;-90
2023/12/19 07:53:02;;;;;;;2.57;2.37;;;;;;;;;;4995657;28;20207;-90
2023/12/19 07:55:31;;;;;;;7.60;4.37;;;;;;;;;;4995357;28;20213;-91
2023/12/19 07:58:01;;;;;;;2.30;2.13;;;;;;;;;;4995204;28;20233;-91
2023/12/19 08:00:30;;;;;;;3.53;2.97;;;;;;;;;;4994859;28;20207;-90
2023/12/19 08:02:58;;;;;;;1.97;1.87;;;;;;;;;;4994855;28;20271;-89
2023/12/19 08:05:29;;;;;;;9.40;7.03;;;;;;;;;;4994162;28;20313;-89
2023/12/19 08:07:59;;;;;;;3.73;2.73;;;;;;;;;;4993625;28;20208;-89
2023/12/19 08:10:28;;;;;;;5.30;2.73;;;;;;;;;;4995876;28;20207;-89
2023/12/19 08:12:56;;;;;;;4.63;3.57;;;;;;;;;;4994525;28;20289;-90
2023/12/19 08:15:25;;;;;;;2.13;2.03;;;;;;;;;;4994131;28;20254;-89
2023/12/19 08:17:54;;;;;;;2.70;2.00;;;;;;;;;;4993644;28;20232;-90
2023/12/19 08:20:23;;;;;;;3.37;2.57;;;;;;;;;;4993886;28;20200;-90
2023/12/19 08:22:51;;;;;;;3.60;2.23;;;;;;;;;;4994172;28;20207;-89
2023/12/19 08:25:21;;;;;;;1.87;1.77;;;;;;;;;;4994221;28;20203;-89
2023/12/19 08:27:50;;;;;;;3.73;2.87;;;;;;;;;;4993282;28;20298;-88
2023/12/19 08:30:19;;;;;;;2.17;1.90;;;;;;;;;;4992961;28;20341;-88
2023/12/19 08:32:47;;;;;;;7.67;5.43;;;;;;;;;;4993254;28;20203;-89
2023/12/19 08:35:18;;;;;;;5.43;1.77;;;;;;;;;;4993266;28;20198;-90
2023/12/19 08:37:46;;;;;;;1.90;1.80;;;;;;;;;;4994510;28;20266;-90
2023/12/19 08:40:18;;;;;;;1.53;1.40;;;;;;;;;;4993480;28;20286;-89
2023/12/19 08:42:48;;;;;;;1.10;1.10;;;;;;;;;;4993323;28;20195;-90
2023/12/19 08:45:17;;;;;;;1.90;1.80;;;;;;;;;;4993194;28;20345;-90
2023/12/19 08:47:46;;;;;;;1.73;1.63;;;;;;;;;;4993518;28;20211;-88
2023/12/19 08:50:15;;;;;;;2.80;1.67;;;;;;;;;;4993122;28;20207;-89
2023/12/19 08:52:44;;;;;;;1.83;1.67;;;;;;;;;;4994068;28;20307;-89
2023/12/19 08:55:13;;;;;;;2.13;1.93;;;;;;;;;;4993318;28;20200;-89
2023/12/19 08:57:46;;;;;;;1.30;1.20;;;;;;;;;;4990747;28;20274;-89
2023/12/19 09:00:18;;;;;;;5.10;1.53;;;;;;;;;;4989510;28;20303;-90
2023/12/19 09:02:47;;;;;;;6.10;2.23;;;;;;;;;;4990766;28;20212;-92
2023/12/19 09:05:21;;;;;;;2.77;2.40;;;;;;;;;;4989598;28;20220;-89
2023/12/19 09:07:50;;;;;;;2.03;1.80;;;;;;;;;;4969571;28;20198;-89
2023/12/19 09:10:18;;;;;;;2.23;2.00;;;;;;;;;;4964024;28;20241;-89
2023/12/19 09:12:49;;;;;;;1.63;1.03;;;;;;;;;;4967189;28;20208;-89
2023/12/19 09:15:22;;;;;;;1.10;1.10;;;;;;;;;;4961270;28;20238;-88
2023/12/19 09:17:50;;;;;;;4.03;2.10;;;;;;;;;;4971741;28;20312;-90
2023/12/19 09:20:23;;;;;;;1.60;1.50;;;;;;;;;;4969919;28;20197;-90
2023/12/19 09:22:52;;;;;;;2.77;2.57;;;;;;;;;;4967770;28;20295;-89
2023/12/19 09:25:21;;;;;;;1.07;1.07;;;;;;;;;;4970312;28;20212;-89
2023/12/19 09:27:50;;;;;;;1.17;1.17;;;;;;;;;;4970228;28;20223;-89
2023/12/19 09:30:19;;;;;;;2.20;1.70;;;;;;;;;;4971369;28;20208;-92
2023/12/19 09:32:49;;;;;;;3.73;2.23;;;;;;;;;;4970101;28;20208;-89
2023/12/19 09:35:24;;;;;;;1.23;1.07;;;;;;;;;;4972682;28;20222;-91
2023/12/19 09:37:52;;;;;;;7.97;3.20;;;;;;;;;;4971616;28;20253;-91
2023/12/19 09:40:26;;;;;;;2.77;2.50;;;;;;;;;;4967959;28;20280;-92
2023/12/19 09:42:56;;;;;;;2.10;1.93;;;;;;;;;;4972899;28;20223;-91
2023/12/19 09:45:34;;;;;;;3.30;2.90;;;;;;;;;;4974846;28;20276;-92
2023/12/19 09:48:14;;;;;;;3.53;3.00;;;;;;;;;;4973102;28;20193;-88
2023/12/19 09:51:16;;;;;;;4.60;2.97;;;;;;;;;;4971539;28;20205;-88
2023/12/19 09:53:48;;;;;;;1.50;1.40;;;;;;;;;;4966312;28;20208;-88
2023/12/19 09:56:17;;;;;;;3.63;2.67;;;;;;;;;;4971596;28;20201;-90
2023/12/19 09:58:48;;;;;;;4.27;2.30;;;;;;;;;;4974560;28;20228;-89
2023/12/19 10:01:19;;;;;;;3.70;2.50;;;;;;;;;;4973536;28;20332;-88
2023/12/19 10:03:55;;;;;;;3.03;2.10;;;;;;;;;;4971532;28;20210;-88
2023/12/19 10:06:24;;;;;;;8.30;4.03;;;;;;;;;;4978792;28;20284;-88
2023/12/19 10:08:53;;;;;;;11.50;3.30;;;;;;;;;;4986861;28;20200;-88
2023/12/19 10:11:24;;;;;;;3.93;2.67;;;;;;;;;;4985772;28;20387;-89
2023/12/19 10:13:53;;;;;;;1.23;1.17;;;;;;;;;;4994250;28;20210;-89
2023/12/19 10:16:23;;;;;;;7.23;4.23;;;;;;;;;;4993484;28;20212;-88
2023/12/19 10:19:03;;;;;;;10.80;6.10;;;;;;;;;;4990050;28;20223;-88
2023/12/19 10:21:32;;;;;;;4.43;3.30;;;;;;;;;;4991442;28;20205;-87
2023/12/19 10:24:09;;;;;;;8.57;3.90;;;;;;;;;;4992694;28;20211;-88
2023/12/19 10:26:50;;;;;;;;;;;;;;;;;;;;;
2023/12/19 10:32:49;;;;;;;4.70;2.93;;;;;;;;;;4941024;29;20225;-89
2023/12/19 10:35:20;;;;;;;0.50;0.50;;;;;;;;;;4990558;28;20211;-91
2023/12/19 10:37:52;;;;;;;1.17;1.17;;;;;;;;;;4989185;28;20300;-89
2023/12/19 10:43:59;;;;;;;1.33;1.20;;;;;;;;;;4941906;28;20211;-89
2023/12/19 10:46:41;;;;;;;1.63;1.63;;;;;;;;;;4985086;28;20290;-89
2023/12/19 10:49:14;;;;;;;2.00;1.47;;;;;;;;;;4983809;28;20212;-89
2023/12/19 10:51:56;;;;;;;0.50;0.50;;;;;;;;;;4989653;28;20224;-89
2023/12/19 10:54:27;;;;;;;0.70;0.70;;;;;;;;;;4987338;28;20219;-89
2023/12/19 10:57:04;;;;;;;1.07;1.03;;;;;;;;;;4987339;28;20303;-89
2023/12/19 10:59:42;;;;;;;2.67;0.70;;;;;;;;;;4990780;28;20228;-89
2023/12/19 11:02:15;;;;;;;1.63;0.90;;;;;;;;;;4990101;28;20200;-87
2023/12/19 11:09:04;;;;;;;;;;;;;;;;;;;;;
2023/12/19 11:11:59;;;;;;;1.17;1.17;;;;;;;;;;4954381;28;20224;-90
2023/12/19 11:14:35;;;;;;;0.83;0.83;;;;;;;;;;4989171;28;20196;-90
2023/12/19 11:17:11;;;;;;;0.50;0.50;;;;;;;;;;4992470;28;20216;-89
2023/12/19 11:20:13;;;;;;;0.50;0.50;;;;;;;;;;4991371;28;20236;-89
2023/12/19 11:22:48;;;;;;;3.20;1.53;;;;;;;;;;4984051;28;20219;-90
2023/12/19 11:25:22;;;;;;;1.33;1.00;;;;;;;;;;4991433;28;20219;-90
2023/12/19 11:28:03;;;;;;;0.50;0.50;;;;;;;;;;4980875;28;20240;-90
2023/12/19 11:30:35;;;;;;;0.60;0.60;;;;;;;;;;4994127;28;20262;-89
2023/12/19 11:33:05;;;;;;;0.60;0.60;;;;;;;;;;4992262;28;20216;-89
2023/12/19 11:35:38;;;;;;;1.47;1.47;;;;;;;;;;4989870;28;20260;-90
2023/12/19 11:38:26;;;;;;;1.07;1.07;;;;;;;;;;4990888;28;20216;-90
2023/12/19 11:41:02;;;;;;;0.40;0.40;;;;;;;;;;4980070;28;20231;-90
2023/12/19 11:43:58;;;;;;;0.93;0.93;;;;;;;;;;4988629;28;20211;-88
2023/12/19 11:46:28;;;;;;;0.60;0.60;;;;;;;;;;4991097;28;20235;-89
2023/12/19 11:48:59;;;;;;;0.73;0.73;;;;;;;;;;4990636;28;20222;-87
2023/12/19 11:51:51;;;;;;;0.50;0.50;;;;;;;;;;4987482;28;20216;-89
2023/12/19 11:54:20;;;;;;;0.57;0.57;;;;;;;;;;4983533;28;20208;-88
2023/12/19 11:57:00;;;;;;;0.50;0.50;;;;;;;;;;4989559;28;20219;-89
2023/12/19 11:59:48;;;;;;;0.50;0.50;;;;;;;;;;4988725;28;20225;-88
2023/12/19 12:02:30;;;;;;;0.50;0.50;;;;;;;;;;4989484;28;20213;-89
2023/12/19 12:05:09;;;;;;;0.50;0.50;;;;;;;;;;4987412;28;20204;-88
2023/12/19 12:07:42;;;;;;;0.50;0.50;;;;;;;;;;4987785;28;20240;-89
2023/12/19 12:10:11;;;;;;;0.40;0.40;;;;;;;;;;4990091;28;20200;-88
2023/12/19 12:12:40;;;;;;;0.60;0.60;;;;;;;;;;4988672;28;20208;-89
2023/12/19 12:15:13;;;;;;;0.53;0.53;;;;;;;;;;4991398;28;20303;-88
2023/12/19 12:17:43;;;;;;;0.40;0.40;;;;;;;;;;4990413;28;20204;-88
2023/12/19 12:20:14;;;;;;;0.57;0.57;;;;;;;;;;4990736;28;20223;-88
2023/12/19 12:22:45;;;;;;;0.43;0.43;;;;;;;;;;4991168;28;20209;-89
2023/12/19 12:25:22;;;;;;;0.50;0.50;;;;;;;;;;4990053;28;20208;-87
2023/12/19 12:28:32;;;;;;;0.50;0.50;;;;;;;;;;4988890;28;20210;-88
2023/12/19 12:31:05;;;;;;;0.40;0.40;;;;;;;;;;4961033;28;20207;-89
2023/12/19 12:33:57;;;;;;;0.77;0.77;;;;;;;;;;4968326;28;20294;-88
2023/12/19 12:36:38;;;;;;;0.57;0.57;;;;;;;;;;4979935;28;20211;-88
2023/12/19 12:39:09;;;;;;;0.50;0.50;;;;;;;;;;4989061;28;20219;-87
2023/12/19 12:41:50;;;;;;;0.50;0.50;;;;;;;;;;4989091;28;20224;-87
2023/12/19 12:44:33;;;;;;;0.50;0.50;;;;;;;;;;4989581;28;20235;-88
2023/12/19 12:47:29;;;;;;;0.50;0.50;;;;;;;;;;4983788;28;20241;-88
2023/12/19 12:50:07;;;;;;;0.50;0.50;;;;;;;;;;4989256;28;20208;-87
2023/12/19 12:52:36;;;;;;;0.50;0.50;;;;;;;;;;4988340;28;20537;-87
2023/12/19 12:55:12;;;;;;;0.50;0.50;;;;;;;;;;4985393;28;20218;-89
2023/12/19 12:57:41;;;;;;;0.50;0.50;;;;;;;;;;4986419;28;20221;-86
2023/12/19 13:00:10;;;;;;;0.50;0.50;;;;;;;;;;4988858;28;20231;-87
2023/12/19 13:02:55;;;;;;;0.50;0.50;;;;;;;;;;4985958;28;20264;-89
2023/12/19 13:05:24;;;;;;;0.50;0.50;;;;;;;;;;4985436;28;20318;-88
2023/12/19 13:07:52;;;;;;;0.50;0.50;;;;;;;;;;4989901;28;20244;-87
2023/12/19 13:10:21;;;;;;;0.50;0.50;;;;;;;;;;4988806;28;20224;-87
2023/12/19 13:12:50;;;;;;;0.50;0.50;;;;;;;;;;4986813;28;20214;-88
2023/12/19 13:15:19;;;;;;;0.50;0.50;;;;;;;;;;4987894;28;20208;-88
2023/12/19 13:17:47;;;;;;;0.50;0.50;;;;;;;;;;4990891;28;20215;-88
2023/12/19 13:20:18;;;;;;;0.50;0.50;;;;;;;;;;4993041;28;20323;-87
2023/12/19 13:22:47;;;;;;;0.50;0.50;;;;;;;;;;4991940;28;20203;-87
2023/12/19 13:25:24;;;;;;;0.50;0.50;;;;;;;;;;4992849;28;20214;-88
2023/12/19 13:28:04;;;;;;;0.50;0.50;;;;;;;;;;5002518;28;20212;-88
2023/12/19 13:30:33;;;;;;;0.50;0.50;;;;;;;;;;4994913;28;20207;-87
2023/12/19 13:33:02;;;;;;;0.50;0.50;;;;;;;;;;4994142;28;20222;-87
2023/12/19 13:35:32;;;;;;;0.40;0.40;;;;;;;;;;4993094;28;20239;-88
2023/12/19 13:38:01;;;;;;;0.50;0.50;;;;;;;;;;4992986;28;20225;-89
2023/12/19 13:40:29;;;;;;;0.40;0.40;;;;;;;;;;4984801;28;20224;-88
2023/12/19 13:42:58;;;;;;;0.50;0.50;;;;;;;;;;4992767;28;20327;-88
2023/12/19 13:45:27;;;;;;;0.50;0.50;;;;;;;;;;4993263;28;20211;-89
2023/12/19 13:47:58;;;;;;;0.50;0.50;;;;;;;;;;4993304;28;20309;-88
2023/12/19 13:50:27;;;;;;;0.50;0.50;;;;;;;;;;4984787;28;20211;-88
2023/12/19 13:52:57;;;;;;;0.40;0.40;;;;;;;;;;4988830;28;20208;-88
2023/12/19 13:55:26;;;;;;;0.57;0.57;;;;;;;;;;4988630;28;20208;-88
2023/12/19 13:57:54;;;;;;;0.50;0.50;;;;;;;;;;4988504;28;20270;-88
2023/12/19 14:00:23;;;;;;;0.50;0.50;;;;;;;;;;4993387;28;20224;-89
2023/12/19 14:02:59;;;;;;;0.50;0.50;;;;;;;;;;4992933;28;20289;-88
2023/12/19 14:05:28;;;;;;;0.50;0.50;;;;;;;;;;4992674;28;20236;-89
2023/12/19 14:07:59;;;;;;;0.50;0.50;;;;;;;;;;4992550;28;20286;-88
2023/12/19 14:10:29;;;;;;;0.50;0.50;;;;;;;;;;4993035;28;20209;-87
2023/12/19 14:13:00;;;;;;;0.50;0.50;;;;;;;;;;4989962;28;20220;-88
2023/12/19 14:15:29;;;;;;;0.50;0.50;;;;;;;;;;4984888;28;20208;-87
2023/12/19 14:17:58;;;;;;;0.50;0.50;;;;;;;;;;4992766;28;20239;-88
2023/12/19 14:20:28;;;;;;;0.50;0.50;;;;;;;;;;4992619;28;20213;-88
2023/12/19 14:23:00;;;;;;;0.50;0.50;;;;;;;;;;4992664;28;20212;-87
2023/12/19 14:25:32;;;;;;;0.50;0.50;;;;;;;;;;4991658;28;20274;-88
2023/12/19 14:28:01;;;;;;;0.50;0.50;;;;;;;;;;4990833;28;20205;-87
2023/12/19 14:30:35;;;;;;;0.50;0.50;;;;;;;;;;4991479;28;20215;-88
2023/12/19 14:33:05;;;;;;;0.50;0.50;;;;;;;;;;4988934;28;21561;-88
2023/12/19 14:35:34;;;;;;;0.50;0.50;;;;;;;;;;4990687;28;20217;-88
2023/12/19 14:38:06;;;;;;;0.50;0.50;;;;;;;;;;4991580;28;20278;-87
2023/12/19 14:40:35;;;;;;;0.50;0.50;;;;;;;;;;4992672;28;20213;-87
2023/12/19 14:43:04;;;;;;;0.50;0.50;;;;;;;;;;4993329;28;20215;-88
2023/12/19 14:45:33;;;;;;;0.50;0.50;;;;;;;;;;4990646;28;20213;-88
2023/12/19 14:48:01;;;;;;;0.50;0.50;;;;;;;;;;4995939;28;20204;-86
2023/12/19 14:50:30;;;;;;;0.50;0.50;;;;;;;;;;4992486;28;20208;-88
2023/12/19 14:52:59;;;;;;;0.50;0.50;;;;;;;;;;4991518;28;20222;-88
2023/12/19 14:55:34;;;;;;;0.50;0.50;;;;;;;;;;4992143;28;20227;-87
2023/12/19 14:58:04;;;;;;;0.50;0.50;;;;;;;;;;4988363;28;20204;-87
2023/12/19 15:00:32;;;;;;;0.50;0.50;;;;;;;;;;4990512;28;20298;-88
2023/12/19 15:03:03;;;;;;;0.50;0.50;;;;;;;;;;4988903;28;20255;-88
2023/12/19 15:05:31;;;;;;;0.50;0.50;;;;;;;;;;4988287;28;20287;-90
2023/12/19 15:08:00;;;;;;;0.50;0.50;;;;;;;;;;4991764;28;20240;-90
2023/12/19 15:10:31;;;;;;;0.50;0.50;;;;;;;;;;4998362;28;20215;-90
2023/12/19 15:12:59;;;;;;;0.50;0.50;;;;;;;;;;4996772;28;20251;-90
2023/12/19 15:15:29;;;;;;;0.50;0.50;;;;;;;;;;4995015;28;20204;-91